Time;durP1;ratioP1;P1;durP2;ratioP2;P2;SDS_P1;SDS_P2;PMS_P1;PMS_P2;Temp;Humidity;BMP_temperature;BMP_pressure;BME280_temperature;BME280_humidity;BME280_pressure;Samples;Min_cycle;Max_cycle;Signal;HPM_P1;HPM_P2
2023/10/10 00:00:27;;;;;;;3.65;1.90;;;23.20;54.30;;;;;;5002465;28;20517;-63
2023/10/10 00:02:54;;;;;;;3.10;1.70;;;23.20;54.50;;;;;;5003689;28;20467;-63
2023/10/10 00:05:33;;;;;;;2.90;1.60;;;23.20;54.90;;;;;;5000691;28;20108;-63
2023/10/10 00:07:59;;;;;;;3.22;1.90;;;23.20;54.30;;;;;;5000918;28;20034;-63
2023/10/10 00:10:27;;;;;;;3.95;1.67;;;23.20;54.40;;;;;;5000063;28;20046;-63
2023/10/10 00:12:53;;;;;;;3.92;1.95;;;23.20;54.30;;;;;;5001285;28;20026;-63
2023/10/10 00:15:22;;;;;;;2.92;1.88;;;23.20;54.30;;;;;;5000816;28;20050;-63
2023/10/10 00:17:48;;;;;;;3.45;1.70;;;23.20;54.30;;;;;;5003189;28;20015;-63
2023/10/10 00:20:22;;;;;;;3.42;1.60;;;23.20;54.40;;;;;;5002070;28;20037;-63
2023/10/10 00:22:48;;;;;;;3.35;1.77;;;23.20;54.30;;;;;;5000069;28;20060;-63
2023/10/10 00:25:23;;;;;;;3.13;1.80;;;23.20;54.30;;;;;;5001933;28;20533;-63
2023/10/10 00:27:55;;;;;;;3.00;1.83;;;23.20;54.40;;;;;;5001167;28;20037;-63
2023/10/10 00:30:22;;;;;;;3.47;1.50;;;23.20;54.30;;;;;;5001888;28;20502;-63
2023/10/10 00:32:50;;;;;;;3.47;1.73;;;23.20;54.30;;;;;;5000653;28;20061;-63
2023/10/10 00:35:17;;;;;;;3.05;1.60;;;23.20;54.30;;;;;;5002283;28;20026;-63
2023/10/10 00:37:44;;;;;;;2.90;1.58;;;23.20;54.30;;;;;;4999250;28;20022;-63
2023/10/10 00:40:15;;;;;;;2.58;1.73;;;23.10;54.30;;;;;;5000936;28;20041;-63
2023/10/10 00:42:40;;;;;;;2.78;1.70;;;23.10;54.30;;;;;;5001915;28;20034;-63
2023/10/10 00:45:32;;;;;;;3.20;1.80;;;23.10;54.30;;;;;;5001497;28;20501;-63
2023/10/10 00:48:00;;;;;;;3.15;1.73;;;23.10;54.30;;;;;;5017463;28;20076;-63
2023/10/10 00:50:27;;;;;;;2.90;1.60;;;23.10;54.30;;;;;;4998646;28;20493;-63
2023/10/10 00:52:53;;;;;;;2.90;1.50;;;23.10;54.30;;;;;;4999123;28;20100;-63
2023/10/10 00:55:22;;;;;;;2.47;1.52;;;23.10;54.30;;;;;;5000998;28;20489;-63
2023/10/10 00:57:52;;;;;;;3.08;1.60;;;23.10;54.30;;;;;;5001767;28;20127;-63
2023/10/10 01:00:19;;;;;;;2.92;1.60;;;23.10;54.30;;;;;;4997458;28;20697;-63
2023/10/10 01:02:45;;;;;;;3.05;1.52;;;23.10;54.30;;;;;;5000771;28;20034;-63
2023/10/10 01:05:14;;;;;;;2.83;1.65;;;23.10;54.30;;;;;;5000456;28;20034;-63
2023/10/10 01:07:46;;;;;;;2.75;1.60;;;23.10;54.30;;;;;;5000571;28;20022;-59
2023/10/10 01:10:16;;;;;;;2.88;1.67;;;23.10;54.30;;;;;;5000571;28;20045;-60
2023/10/10 01:12:44;;;;;;;2.65;1.67;;;23.10;54.30;;;;;;5001088;28;20144;-60
2023/10/10 01:15:14;;;;;;;2.33;1.35;;;23.10;54.30;;;;;;4998547;28;20041;-60
2023/10/10 01:17:43;;;;;;;2.40;1.60;;;23.10;54.30;;;;;;5000472;28;20027;-63
2023/10/10 01:20:33;;;;;;;3.10;1.85;;;23.10;54.30;;;;;;5000869;28;20421;-63
2023/10/10 01:23:00;;;;;;;3.65;1.60;;;23.10;54.30;;;;;;4999178;28;20066;-63
2023/10/10 01:28:33;;;;;;;3.35;1.80;;;23.10;54.30;;;;;;5000117;28;20034;-63
2023/10/10 01:31:03;;;;;;;2.90;1.50;;;23.00;54.20;;;;;;4999772;28;20033;-63
2023/10/10 01:33:36;;;;;;;2.90;1.70;;;23.10;54.30;;;;;;5000660;28;20105;-62
2023/10/10 01:36:12;;;;;;;2.75;1.70;;;23.00;54.30;;;;;;4999182;28;20548;-62
2023/10/10 01:38:55;;;;;;;2.15;1.40;;;23.00;54.30;;;;;;4999618;28;20037;-63
2023/10/10 01:41:31;;;;;;;3.17;1.88;;;23.00;54.30;;;;;;4999540;28;20494;-63
2023/10/10 01:44:08;;;;;;;3.45;1.77;;;23.10;54.40;;;;;;4998801;28;20038;-63
2023/10/10 01:46:35;;;;;;;2.72;1.60;;;23.10;54.30;;;;;;5000915;28;20040;-63
2023/10/10 01:49:02;;;;;;;2.65;1.55;;;23.00;54.30;;;;;;4998760;28;20573;-63
2023/10/10 01:51:33;;;;;;;2.72;1.60;;;23.00;54.30;;;;;;5000786;28;20033;-63
2023/10/10 01:54:14;;;;;;;2.88;1.60;;;23.10;54.30;;;;;;4999188;28;20038;-63
2023/10/10 01:56:40;;;;;;;2.83;1.60;;;23.00;54.30;;;;;;5000639;28;20391;-63
2023/10/10 01:59:09;;;;;;;2.30;1.35;;;23.00;54.30;;;;;;4996231;28;20027;-63
2023/10/10 02:01:35;;;;;;;;;;;23.00;54.30;;;;;;4998394;28;20076;-63
2023/10/10 02:04:05;;;;;;;2.58;1.40;;;23.00;54.30;;;;;;5000268;28;20383;-64
2023/10/10 02:06:34;;;;;;;3.08;1.60;;;23.00;54.30;;;;;;5000072;28;20596;-63
2023/10/10 02:09:10;;;;;;;2.50;1.48;;;23.00;54.30;;;;;;5000391;28;20046;-63
2023/10/10 02:11:38;;;;;;;2.97;1.48;;;23.00;54.30;;;;;;5001403;28;20521;-63
2023/10/10 02:14:11;;;;;;;2.92;1.60;;;23.00;54.30;;;;;;4996882;28;20105;-63
2023/10/10 02:16:40;;;;;;;3.10;1.90;;;23.00;54.30;;;;;;4997736;28;20026;-63
2023/10/10 02:19:15;;;;;;;2.63;1.42;;;23.00;54.30;;;;;;5000893;28;20018;-63
2023/10/10 02:21:48;;;;;;;2.25;1.35;;;23.00;54.30;;;;;;4998827;28;20027;-63
2023/10/10 02:26:53;;;;;;;2.60;1.48;;;23.00;54.30;;;;;;5000634;28;20026;-63
2023/10/10 02:29:48;;;;;;;2.65;1.63;;;22.90;54.30;;;;;;4999615;28;20037;-64
2023/10/10 02:32:19;;;;;;;3.50;1.73;;;23.00;54.30;;;;;;4997608;28;20474;-64
2023/10/10 02:34:55;;;;;;;3.15;1.55;;;22.90;54.30;;;;;;4999763;28;20037;-64
2023/10/10 02:40:05;;;;;;;2.97;1.60;;;22.90;54.30;;;;;;4999508;28;20425;-64
2023/10/10 02:42:33;;;;;;;3.08;1.45;;;22.90;54.30;;;;;;4998690;28;20025;-64
2023/10/10 02:44:59;;;;;;;3.00;1.73;;;22.90;54.30;;;;;;5006729;28;20033;-64
2023/10/10 02:47:30;;;;;;;2.58;1.40;;;22.90;54.30;;;;;;4998516;28;20105;-63
2023/10/10 02:50:39;;;;;;;2.35;1.50;;;22.90;54.30;;;;;;4999334;28;20030;-64
2023/10/10 02:53:00;;;;;;;2.90;1.65;;;22.90;54.80;;;;;;5000400;28;20037;-64
2023/10/10 02:55:33;;;;;;;2.67;1.60;;;22.90;54.30;;;;;;4997453;28;20488;-64
2023/10/10 02:57:59;;;;;;;3.13;1.52;;;22.90;54.30;;;;;;4998457;28;20038;-64
2023/10/10 03:02:53;;;;;;;2.63;1.70;;;22.90;54.30;;;;;;4997073;28;20040;-64
2023/10/10 03:05:38;;;;;;;2.10;1.42;;;22.90;54.30;;;;;;4998075;28;20022;-64
2023/10/10 03:08:13;;;;;;;2.88;1.58;;;22.90;54.30;;;;;;4997724;28;20018;-63
2023/10/10 03:10:45;;;;;;;3.05;1.60;;;22.90;54.30;;;;;;4998309;28;20501;-63
2023/10/10 03:13:27;;;;;;;3.30;1.90;;;22.90;54.30;;;;;;4998009;28;20430;-63
2023/10/10 03:16:11;;;;;;;2.83;1.58;;;22.90;54.30;;;;;;4997518;28;20114;-63
2023/10/10 03:18:43;;;;;;;2.28;1.42;;;22.90;54.30;;;;;;4997876;28;20081;-63
2023/10/10 03:23:54;;;;;;;2.50;1.60;;;22.90;54.30;;;;;;4998003;28;20323;-63
2023/10/10 03:26:51;;;;;;;2.60;1.67;;;22.90;54.30;;;;;;4997664;28;20258;-62
2023/10/10 03:29:11;;;;;;;2.38;1.40;;;22.90;54.30;;;;;;4998773;28;20080;-62
2023/10/10 03:31:47;;;;;;;2.70;1.58;;;22.90;54.30;;;;;;4995237;28;20031;-63
2023/10/10 03:36:44;;;;;;;2.60;1.67;;;22.80;54.30;;;;;;4999019;28;20442;-60
2023/10/10 03:39:24;;;;;;;2.78;1.58;;;22.80;54.30;;;;;;4997559;28;20030;-60
2023/10/10 05:23:30;;;;;;;2.38;1.55;;;22.70;54.50;;;;;;5001444;28;20651;-60
2023/10/10 05:25:55;;;;;;;2.80;1.60;;;22.70;54.50;;;;;;4998605;28;20438;-60
2023/10/10 05:28:22;;;;;;;2.67;1.50;;;22.70;54.50;;;;;;4999804;28;20193;-59
2023/10/10 05:30:48;;;;;;;2.22;1.38;;;22.70;54.50;;;;;;4997930;28;20029;-60
2023/10/10 05:33:19;;;;;;;2.78;1.63;;;22.70;54.50;;;;;;4999576;28;20055;-59
2023/10/10 05:35:48;;;;;;;2.83;1.42;;;22.70;54.50;;;;;;4999906;28;20045;-60
2023/10/10 05:38:15;;;;;;;2.22;1.35;;;22.70;54.50;;;;;;5000300;28;20030;-60
2023/10/10 05:40:43;;;;;;;2.70;1.45;;;22.70;54.50;;;;;;5000169;28;20041;-59
2023/10/10 05:43:13;;;;;;;2.40;1.65;;;22.70;54.50;;;;;;5001021;28;20497;-59
2023/10/10 05:45:39;;;;;;;3.00;1.75;;;22.70;54.50;;;;;;4998394;28;20474;-59
2023/10/10 05:48:05;;;;;;;2.65;1.58;;;22.70;54.50;;;;;;5000870;28;20030;-59
2023/10/10 05:50:32;;;;;;;3.88;1.92;;;22.60;54.50;;;;;;4999763;28;20030;-60
2023/10/10 05:53:00;;;;;;;3.10;1.50;;;22.60;54.40;;;;;;5000249;28;20027;-60
2023/10/10 05:55:29;;;;;;;2.95;1.70;;;22.60;54.50;;;;;;4998948;28;20406;-60
2023/10/10 05:57:57;;;;;;;2.63;1.53;;;22.60;54.40;;;;;;5000021;28;20360;-63
2023/10/10 06:00:27;;;;;;;3.00;1.60;;;22.60;54.50;;;;;;4998788;28;20512;-63
2023/10/10 06:02:52;;;;;;;2.78;1.35;;;22.60;54.50;;;;;;4997837;28;20101;-63
2023/10/10 06:05:18;;;;;;;2.13;1.48;;;22.60;54.50;;;;;;4999715;28;20114;-63
2023/10/10 06:07:44;;;;;;;2.63;1.45;;;22.60;54.50;;;;;;4999353;28;20037;-63
2023/10/10 06:10:16;;;;;;;2.20;1.38;;;22.60;54.50;;;;;;4998351;28;20508;-63
2023/10/10 06:12:48;;;;;;;3.08;1.70;;;22.60;54.50;;;;;;4999642;28;20394;-63
2023/10/10 06:15:19;;;;;;;2.75;1.58;;;22.60;54.50;;;;;;4999929;28;20103;-63
2023/10/10 06:18:08;;;;;;;3.03;1.60;;;22.60;54.50;;;;;;4999127;28;20433;-63
2023/10/10 06:20:40;;;;;;;2.63;1.60;;;22.60;54.50;;;;;;5000936;28;20049;-63
2023/10/10 06:23:08;;;;;;;3.15;1.40;;;22.60;54.40;;;;;;5000257;28;20054;-63
2023/10/10 06:25:34;;;;;;;2.50;1.40;;;22.60;54.40;;;;;;4998271;28;20105;-63
2023/10/10 06:28:00;;;;;;;3.45;1.60;;;22.60;54.40;;;;;;4999428;28;20527;-63
2023/10/10 06:30:26;;;;;;;2.40;1.60;;;22.60;54.40;;;;;;4998561;28;20124;-63
2023/10/10 06:33:06;;;;;;;3.00;1.88;;;22.60;54.40;;;;;;4996971;28;20513;-63
2023/10/10 06:35:36;;;;;;;2.60;1.40;;;22.60;54.40;;;;;;4997295;28;20022;-63
2023/10/10 06:38:02;;;;;;;4.35;1.50;;;22.60;54.40;;;;;;4999226;28;20037;-62
2023/10/10 06:40:29;;;;;;;3.15;1.67;;;22.60;54.40;;;;;;4999373;28;20030;-63
2023/10/10 06:43:00;;;;;;;2.47;1.60;;;22.60;54.40;;;;;;4999228;28;20042;-63
2023/10/10 06:45:35;;;;;;;2.60;1.50;;;22.60;54.40;;;;;;5000469;28;20513;-62
2023/10/10 06:48:01;;;;;;;3.17;1.67;;;22.60;55.00;;;;;;4997036;28;20034;-62
2023/10/10 06:50:31;;;;;;;2.50;1.65;;;22.60;54.90;;;;;;4997875;28;20045;-62
2023/10/10 06:52:57;;;;;;;2.70;1.58;;;22.60;54.40;;;;;;4998811;28;20030;-63
2023/10/10 06:55:24;;;;;;;3.13;1.52;;;22.60;54.50;;;;;;4998146;28;20094;-63
2023/10/10 06:57:59;;;;;;;3.25;1.60;;;22.60;54.40;;;;;;4998762;28;20030;-59
2023/10/10 07:00:28;;;;;;;5.28;1.90;;;22.60;54.40;;;;;;4999236;28;20387;-60
2023/10/10 07:02:55;;;;;;;2.97;1.60;;;22.60;54.50;;;;;;4997404;28;20466;-60
2023/10/10 07:05:26;;;;;;;3.20;1.80;;;22.60;54.50;;;;;;4998211;28;20491;-59
2023/10/10 07:07:57;;;;;;;3.22;1.50;;;22.60;54.50;;;;;;4998466;28;20034;-62
2023/10/10 07:10:32;;;;;;;3.78;1.70;;;22.60;54.50;;;;;;4999112;28;20375;-63
2023/10/10 07:13:13;;;;;;;2.85;1.70;;;22.60;54.50;;;;;;4999350;28;20030;-62
2023/10/10 07:15:41;;;;;;;3.10;1.63;;;22.60;54.50;;;;;;4999074;28;20026;-62
2023/10/10 07:18:14;;;;;;;3.38;2.00;;;22.60;54.50;;;;;;4998208;28;20100;-62
2023/10/10 07:23:24;;;;;;;2.67;1.50;;;22.60;54.50;;;;;;4996521;28;20033;-62
2023/10/10 07:25:59;;;;;;;3.08;1.52;;;22.60;54.50;;;;;;5000289;28;20771;-62
2023/10/10 07:28:29;;;;;;;3.03;1.70;;;22.60;54.50;;;;;;4999966;28;20453;-62
2023/10/10 07:30:55;;;;;;;3.08;1.85;;;22.60;54.60;;;;;;4999093;28;20431;-62
2023/10/10 07:33:23;;;;;;;3.35;1.70;;;22.60;54.60;;;;;;4997400;28;20030;-62
2023/10/10 07:35:55;;;;;;;3.55;1.55;;;22.60;54.60;;;;;;4997385;28;20556;-62
2023/10/10 07:38:27;;;;;;;3.00;1.88;;;22.60;54.60;;;;;;4999940;28;20049;-62
2023/10/10 07:40:53;;;;;;;3.90;1.90;;;22.60;55.10;;;;;;5002053;28;20034;-62
2023/10/10 07:43:20;;;;;;;2.80;1.60;;;22.60;55.20;;;;;;5003107;28;20030;-62
2023/10/10 07:45:47;;;;;;;3.80;2.13;;;22.60;54.70;;;;;;5000643;28;20041;-62
2023/10/10 07:50:48;;;;;;;3.78;2.00;;;22.60;54.70;;;;;;5002881;28;20572;-63
2023/10/10 07:53:14;;;;;;;4.10;1.70;;;22.60;54.70;;;;;;5001596;28;20037;-62
2023/10/10 07:56:00;;;;;;;2.78;1.73;;;22.60;54.70;;;;;;5001417;28;20037;-63
2023/10/10 08:01:31;;;;;;;3.40;2.00;;;22.60;54.70;;;;;;4988711;28;20044;-63
2023/10/10 08:03:57;;;;;;;3.50;1.67;;;22.60;54.70;;;;;;4990050;28;20042;-63
2023/10/10 08:06:22;;;;;;;3.72;1.80;;;22.60;54.70;;;;;;4995997;28;20441;-63
2023/10/10 08:08:56;;;;;;;3.33;1.67;;;22.60;54.70;;;;;;5002628;28;20027;-59
2023/10/10 08:11:35;;;;;;;2.90;1.60;;;22.60;54.70;;;;;;5001798;28;20248;-59
2023/10/10 08:14:05;;;;;;;;;;;22.60;54.70;;;;;;5002173;28;20022;-60
2023/10/10 08:16:33;;;;;;;3.65;1.70;;;22.60;54.70;;;;;;5001089;28;20333;-61
2023/10/10 08:19:07;;;;;;;2.80;1.90;;;22.60;54.70;;;;;;4999680;28;20036;-64
2023/10/10 08:21:48;;;;;;;2.95;1.70;;;22.60;54.70;;;;;;5001461;28;20084;-63
2023/10/10 08:24:15;;;;;;;3.03;1.67;;;22.60;54.60;;;;;;5002775;28;20478;-62
2023/10/10 08:26:41;;;;;;;3.53;1.70;;;22.60;54.70;;;;;;5002267;28;20577;-62
2023/10/10 08:29:13;;;;;;;3.78;1.83;;;22.60;54.70;;;;;;5002156;28;20485;-63
2023/10/10 08:31:42;;;;;;;2.60;1.63;;;22.60;54.70;;;;;;4999758;28;20481;-63
2023/10/10 08:34:09;;;;;;;3.67;1.90;;;22.60;54.70;;;;;;5001295;28;20520;-63
2023/10/10 08:36:37;;;;;;;2.47;1.48;;;22.60;54.70;;;;;;5001411;28;20129;-63
2023/10/10 08:39:49;;;;;;;2.70;1.42;;;22.60;54.70;;;;;;5000046;28;20026;-63
2023/10/10 08:41:52;;;;;;;2.55;1.50;;;22.60;54.70;;;;;;4999778;28;20042;-63
2023/10/10 08:44:19;;;;;;;2.65;1.63;;;22.60;54.70;;;;;;5000737;28;20026;-62
2023/10/10 08:46:46;;;;;;;2.17;1.20;;;22.60;54.70;;;;;;5000356;28;20554;-61
2023/10/10 08:49:13;;;;;;;2.63;1.40;;;22.60;54.70;;;;;;5001723;28;20482;-63
2023/10/10 08:51:41;;;;;;;2.63;1.52;;;22.60;54.70;;;;;;5000690;28;20053;-62
2023/10/10 08:54:11;;;;;;;2.70;1.40;;;22.60;54.80;;;;;;5007314;28;20030;-63
2023/10/10 08:56:59;;;;;;;2.08;1.38;;;22.60;54.80;;;;;;4999848;28;20112;-63
2023/10/10 08:59:28;;;;;;;2.15;1.30;;;22.60;54.80;;;;;;5000804;28;20080;-63
2023/10/10 09:02:16;;;;;;;2.78;1.60;;;22.60;54.90;;;;;;4999913;28;20378;-62
2023/10/10 09:04:41;;;;;;;2.25;1.50;;;22.60;54.90;;;;;;5000012;28;20486;-63
2023/10/10 09:10:04;;;;;;;2.85;1.45;;;22.60;55.00;;;;;;5000365;28;20038;-63
2023/10/10 09:12:32;;;;;;;2.35;1.35;;;22.60;55.00;;;;;;5001372;28;20042;-63
2023/10/10 09:15:13;;;;;;;2.63;1.42;;;22.60;55.50;;;;;;5002077;28;20105;-63
2023/10/10 09:17:40;;;;;;;3.25;1.85;;;22.60;55.00;;;;;;4999703;28;20470;-61
2023/10/10 09:20:22;;;;;;;2.58;1.50;;;22.60;55.00;;;;;;4998516;28;20105;-59
2023/10/10 09:22:51;;;;;;;2.50;1.48;;;22.60;55.00;;;;;;5000293;28;20105;-60
2023/10/10 09:25:20;;;;;;;2.63;1.30;;;22.60;55.00;;;;;;4999145;28;20466;-59
2023/10/10 09:28:00;;;;;;;2.72;1.52;;;22.60;55.00;;;;;;5001509;28;20077;-58
2023/10/10 09:30:32;;;;;;;2.40;1.30;;;22.60;55.00;;;;;;5001237;28;20450;-58
2023/10/10 09:33:27;;;;;;;2.03;1.30;;;22.70;55.10;;;;;;4996579;28;20065;-60
2023/10/10 09:36:09;;;;;;;2.70;1.33;;;22.60;55.10;;;;;;4999049;28;20324;-59
2023/10/10 09:38:36;;;;;;;2.72;1.33;;;22.70;55.10;;;;;;5000144;28;20535;-60
2023/10/10 09:41:14;;;;;;;1.98;1.10;;;22.70;55.10;;;;;;5001194;28;20504;-59
2023/10/10 09:57:42;;;;;;;2.35;1.23;;;22.70;55.00;;;;;;4999638;28;20098;-60
2023/10/10 10:00:15;;;;;;;2.20;1.17;;;22.70;55.00;;;;;;5001212;28;20080;-59
2023/10/10 10:02:49;;;;;;;2.60;1.33;;;22.70;55.00;;;;;;4999268;28;20574;-59
2023/10/10 10:05:19;;;;;;;2.45;1.40;;;22.70;54.90;;;;;;4999202;28;20027;-59
2023/10/10 10:08:06;;;;;;;2.42;1.40;;;22.70;54.90;;;;;;4999830;28;20038;-63
2023/10/10 10:10:52;;;;;;;2.35;1.35;;;22.80;54.90;;;;;;4995774;28;20108;-63
2023/10/10 10:13:40;;;;;;;2.00;1.20;;;22.80;54.90;;;;;;4998670;28;20073;-63
2023/10/10 10:16:15;;;;;;;2.83;1.55;;;22.80;54.90;;;;;;4999482;28;20108;-63
2023/10/10 10:18:46;;;;;;;2.28;1.27;;;22.80;54.90;;;;;;4997878;28;20027;-62
2023/10/10 10:21:30;;;;;;;2.83;1.55;;;22.80;54.90;;;;;;4998629;28;20176;-63
2023/10/10 10:24:15;;;;;;;2.28;1.33;;;22.80;54.90;;;;;;5006082;28;20135;-63
2023/10/10 10:26:44;;;;;;;2.58;1.40;;;22.80;54.90;;;;;;4998229;28;20506;-63
2023/10/10 10:29:27;;;;;;;2.22;1.13;;;22.90;54.90;;;;;;4999155;28;20096;-62
2023/10/10 10:32:00;;;;;;;2.42;1.15;;;22.80;54.90;;;;;;4998980;28;20104;-63
2023/10/10 10:34:35;;;;;;;2.40;1.35;;;22.90;55.00;;;;;;4997976;28;20026;-62
2023/10/10 10:37:20;;;;;;;2.47;1.40;;;22.90;54.90;;;;;;5000620;28;20160;-63
2023/10/10 10:42:35;;;;;;;2.60;1.30;;;22.90;54.90;;;;;;4999723;28;20129;-63
2023/10/10 10:45:33;;;;;;;1.88;1.20;;;22.90;54.80;;;;;;4997285;28;20787;-63
2023/10/10 10:48:04;;;;;;;2.00;1.30;;;22.90;54.90;;;;;;4996313;28;20041;-63
2023/10/10 10:50:42;;;;;;;2.30;1.30;;;22.90;54.80;;;;;;4998539;28;20053;-63
2023/10/10 10:53:30;;;;;;;2.20;1.30;;;22.90;54.80;;;;;;5005552;28;20030;-63
2023/10/10 11:01:17;;;;;;;2.65;1.27;;;22.90;54.70;;;;;;4998288;28;20025;-64
2023/10/10 11:03:44;;;;;;;2.83;1.40;;;22.90;54.70;;;;;;4995107;28;20026;-63
2023/10/10 11:06:14;;;;;;;2.08;1.30;;;23.00;54.70;;;;;;4999652;28;20041;-63
2023/10/10 11:11:36;;;;;;;2.50;1.30;;;23.00;54.70;;;;;;4998895;28;20120;-63
2023/10/10 11:14:10;;;;;;;2.80;1.25;;;23.00;54.70;;;;;;4999238;28;20115;-63
2023/10/10 11:16:45;;;;;;;2.83;1.23;;;23.00;54.70;;;;;;5002410;28;20035;-63
2023/10/10 11:21:59;;;;;;;3.15;1.48;;;23.00;54.70;;;;;;5003611;28;20036;-62
2023/10/10 11:24:31;;;;;;;1.98;1.33;;;23.00;54.70;;;;;;5002196;28;20026;-62
2023/10/10 11:29:28;;;;;;;1.92;1.30;;;23.00;54.60;;;;;;5002085;28;20029;-62
2023/10/10 11:32:46;;;;;;;2.60;1.38;;;23.00;54.70;;;;;;5001772;28;20092;-62
2023/10/10 11:34:49;;;;;;;2.05;1.20;;;23.00;54.70;;;;;;5000553;28;20046;-62
2023/10/10 11:37:23;;;;;;;2.22;1.30;;;23.00;54.60;;;;;;5001936;28;20512;-62
2023/10/10 11:40:36;;;;;;;2.88;1.50;;;23.00;54.60;;;;;;5000437;28;20552;-63
2023/10/10 11:43:11;;;;;;;2.13;1.30;;;23.10;54.70;;;;;;5001343;28;20022;-63
2023/10/10 11:45:50;;;;;;;2.17;1.33;;;23.10;54.70;;;;;;5001981;28;20474;-63
2023/10/10 11:48:15;;;;;;;3.08;1.30;;;23.10;54.60;;;;;;5001762;28;20030;-59
2023/10/10 11:50:44;;;;;;;1.83;1.10;;;23.10;54.70;;;;;;5002567;28;20038;-58
2023/10/10 11:53:13;;;;;;;2.10;1.20;;;23.10;54.60;;;;;;5001479;28;20031;-60
2023/10/10 11:55:41;;;;;;;2.20;1.50;;;23.10;54.60;;;;;;5002154;28;20381;-61
2023/10/10 11:58:16;;;;;;;3.35;1.50;;;23.10;54.60;;;;;;5000908;28;20582;-59
2023/10/10 12:00:59;;;;;;;1.92;1.30;;;23.10;54.60;;;;;;5003450;28;20478;-59
2023/10/10 12:04:08;;;;;;;2.20;1.30;;;23.10;54.60;;;;;;5000284;28;20142;-60
2023/10/10 12:06:19;;;;;;;2.42;1.38;;;23.10;54.60;;;;;;5000892;28;20387;-61
2023/10/10 12:08:50;;;;;;;3.25;1.67;;;23.10;54.60;;;;;;5002651;28;20069;-58
2023/10/10 12:11:20;;;;;;;2.38;1.50;;;23.10;54.60;;;;;;5003519;28;20108;-59
2023/10/10 12:13:46;;;;;;;2.25;1.40;;;23.20;54.60;;;;;;5000652;28;20421;-58
2023/10/10 12:16:12;;;;;;;2.13;1.40;;;23.20;54.70;;;;;;5002814;28;20330;-61
2023/10/10 12:18:49;;;;;;;2.47;1.55;;;23.20;54.70;;;;;;4999493;28;20018;-60
2023/10/10 12:21:19;;;;;;;2.53;1.42;;;23.20;54.70;;;;;;4999544;28;20386;-61
2023/10/10 12:23:48;;;;;;;2.60;1.60;;;23.20;54.70;;;;;;5001298;28;20034;-59
2023/10/10 12:26:15;;;;;;;2.60;1.45;;;23.20;54.70;;;;;;4999925;28;20026;-58
2023/10/10 12:28:43;;;;;;;2.50;1.60;;;23.20;54.70;;;;;;5001742;28;20030;-59
2023/10/10 12:31:15;;;;;;;2.37;1.40;;;23.20;54.70;;;;;;5001628;28;20041;-63
2023/10/10 12:33:45;;;;;;;2.80;1.45;;;23.20;54.70;;;;;;5001134;28;20281;-59
2023/10/10 12:36:10;;;;;;;3.08;1.98;;;23.20;54.70;;;;;;5000677;28;20022;-60
2023/10/10 12:38:39;;;;;;;2.40;1.30;;;23.20;54.70;;;;;;4998729;28;20540;-58
2023/10/10 12:41:15;;;;;;;2.10;1.30;;;23.20;54.70;;;;;;5000024;28;20022;-60
2023/10/10 12:43:40;;;;;;;2.75;1.40;;;23.20;54.70;;;;;;5001821;28;20043;-60
2023/10/10 12:46:10;;;;;;;2.33;1.30;;;23.20;54.70;;;;;;5001448;28;20026;-60
2023/10/10 12:48:42;;;;;;;2.03;1.25;;;23.30;54.70;;;;;;5004438;28;20454;-61
2023/10/10 12:51:10;;;;;;;1.48;1.10;;;23.30;54.70;;;;;;4999812;28;20038;-59
2023/10/10 12:53:40;;;;;;;2.90;1.50;;;23.30;55.00;;;;;;5000612;28;20030;-59
2023/10/10 12:56:11;;;;;;;2.65;1.50;;;23.30;54.70;;;;;;5004518;28;20038;-60
2023/10/10 12:58:42;;;;;;;2.40;1.58;;;23.30;54.70;;;;;;5001235;28;20389;-63
2023/10/10 13:01:12;;;;;;;2.55;1.45;;;23.30;54.70;;;;;;5000151;28;20022;-63
2023/10/10 13:03:38;;;;;;;2.42;1.35;;;23.30;54.70;;;;;;5002646;28;20038;-63
2023/10/10 13:06:04;;;;;;;2.47;1.50;;;23.30;54.70;;;;;;4999278;28;20038;-63
2023/10/10 13:11:19;;;;;;;2.15;1.40;;;23.30;54.70;;;;;;5001264;28;20049;-63
2023/10/10 13:13:52;;;;;;;2.80;1.70;;;23.40;54.80;;;;;;5001157;28;20034;-63
2023/10/10 13:18:51;;;;;;;2.90;1.50;;;23.40;54.80;;;;;;5000983;28;20379;-64
2023/10/10 13:21:20;;;;;;;2.38;1.50;;;23.40;54.80;;;;;;4999402;28;20022;-64
2023/10/10 13:23:49;;;;;;;2.60;1.50;;;23.40;54.70;;;;;;4999696;28;20478;-63
2023/10/10 13:26:16;;;;;;;2.20;1.27;;;23.40;54.70;;;;;;5001067;28;20065;-63
2023/10/10 13:28:46;;;;;;;2.60;1.50;;;23.40;54.80;;;;;;5001591;28;20065;-63
2023/10/10 13:31:13;;;;;;;2.13;1.30;;;23.40;54.70;;;;;;5002919;28;20030;-63
2023/10/10 13:33:39;;;;;;;2.45;1.40;;;23.40;54.70;;;;;;5001664;28;20026;-63
2023/10/10 13:36:06;;;;;;;2.53;1.50;;;23.40;54.70;;;;;;4999013;28;20041;-63
2023/10/10 13:38:32;;;;;;;2.40;1.55;;;23.40;54.70;;;;;;4999287;28;20133;-63
2023/10/10 13:41:01;;;;;;;2.00;1.23;;;23.40;54.70;;;;;;4999851;28;20109;-63
2023/10/10 13:43:27;;;;;;;2.15;1.40;;;23.40;54.70;;;;;;4999976;28;20030;-63
2023/10/10 13:45:57;;;;;;;2.30;1.35;;;23.50;54.70;;;;;;5001267;28;20037;-63
2023/10/10 13:48:24;;;;;;;2.20;1.25;;;23.40;54.70;;;;;;5000450;28;20080;-62
2023/10/10 13:50:56;;;;;;;2.67;1.40;;;23.50;54.70;;;;;;5000457;28;20034;-64
2023/10/10 13:53:21;;;;;;;2.58;1.40;;;23.50;54.70;;;;;;4999710;28;20053;-62
2023/10/10 13:55:47;;;;;;;2.28;1.33;;;23.50;54.70;;;;;;4997505;28;20026;-63
2023/10/10 13:58:13;;;;;;;2.05;1.33;;;23.50;54.70;;;;;;4998085;28;20061;-63
2023/10/10 14:00:42;;;;;;;2.60;1.40;;;23.50;54.70;;;;;;4998971;28;20094;-63
2023/10/10 14:03:08;;;;;;;2.73;1.60;;;23.50;54.70;;;;;;5000635;28;20026;-63
2023/10/10 14:05:41;;;;;;;1.95;1.30;;;23.50;54.70;;;;;;4997878;28;20272;-63
2023/10/10 14:08:09;;;;;;;1.58;1.20;;;23.50;54.70;;;;;;4998992;28;20100;-62
2023/10/10 14:10:37;;;;;;;2.50;1.33;;;23.50;54.60;;;;;;4998459;28;20030;-62
2023/10/10 14:13:18;;;;;;;2.50;1.40;;;23.50;54.60;;;;;;5001985;28;20121;-63
2023/10/10 14:15:54;;;;;;;2.47;1.45;;;23.50;54.60;;;;;;5000024;28;20038;-62
2023/10/10 14:18:24;;;;;;;2.33;1.40;;;23.50;54.60;;;;;;5000949;28;20034;-62
2023/10/10 14:20:50;;;;;;;1.92;1.25;;;23.50;54.60;;;;;;4996251;28;20026;-62
2023/10/10 14:23:24;;;;;;;2.28;1.48;;;23.50;54.60;;;;;;4998258;28;20052;-62
2023/10/10 14:25:50;;;;;;;2.60;1.40;;;23.50;54.60;;;;;;4998598;28;20021;-62
2023/10/10 14:28:18;;;;;;;2.40;1.48;;;23.50;54.50;;;;;;4998638;28;20924;-62
2023/10/10 14:30:44;;;;;;;3.13;1.45;;;23.50;54.50;;;;;;4999653;28;20029;-62
2023/10/10 14:33:10;;;;;;;1.83;1.33;;;23.50;54.50;;;;;;4998744;28;20045;-62
2023/10/10 14:35:36;;;;;;;2.92;1.70;;;23.50;54.40;;;;;;4996522;28;20034;-62
2023/10/10 14:38:02;;;;;;;2.72;1.70;;;23.50;54.50;;;;;;4999935;28;20512;-62
2023/10/10 14:40:28;;;;;;;3.42;1.50;;;23.50;54.40;;;;;;5000742;28;20028;-62
2023/10/10 14:42:54;;;;;;;2.03;1.30;;;23.50;54.40;;;;;;4998747;28;20048;-62
2023/10/10 14:45:24;;;;;;;3.00;1.77;;;23.60;54.40;;;;;;5000110;28;20431;-62
2023/10/10 14:47:51;;;;;;;2.85;1.65;;;23.50;54.40;;;;;;4999300;28;20045;-63
2023/10/10 14:50:23;;;;;;;2.65;1.48;;;23.50;54.30;;;;;;4997582;28;20026;-63
2023/10/10 14:52:53;;;;;;;2.33;1.30;;;23.50;54.30;;;;;;4997929;28;20498;-62
2023/10/10 14:55:25;;;;;;;2.65;1.52;;;23.60;54.40;;;;;;4999806;28;20026;-63
2023/10/10 14:57:55;;;;;;;3.85;1.60;;;23.50;54.30;;;;;;5001497;28;20026;-63
2023/10/10 15:00:24;;;;;;;2.75;1.52;;;23.50;54.30;;;;;;4997963;28;20536;-63
2023/10/10 15:02:53;;;;;;;3.17;1.63;;;23.50;54.30;;;;;;4999829;28;20041;-63
2023/10/10 15:05:26;;;;;;;2.90;1.60;;;23.50;54.30;;;;;;4998249;28;20030;-62
2023/10/10 15:07:55;;;;;;;3.08;1.58;;;23.50;54.30;;;;;;4997320;28;20104;-62
2023/10/10 15:10:25;;;;;;;2.83;1.60;;;23.60;54.40;;;;;;4998263;28;20030;-62
2023/10/10 15:12:52;;;;;;;3.08;1.55;;;23.50;54.30;;;;;;5000041;28;20042;-62
2023/10/10 15:15:18;;;;;;;2.85;1.60;;;23.50;54.30;;;;;;4999890;28;20026;-62
2023/10/10 15:17:43;;;;;;;3.38;1.58;;;23.60;54.30;;;;;;5000120;28;20088;-62
2023/10/10 15:20:12;;;;;;;2.22;1.30;;;23.50;54.30;;;;;;4997461;28;20030;-62
2023/10/10 15:22:44;;;;;;;2.97;1.60;;;23.50;54.30;;;;;;4998317;28;20308;-62
2023/10/10 15:25:10;;;;;;;3.05;1.60;;;23.50;54.30;;;;;;5000039;28;20050;-62
2023/10/10 15:27:40;;;;;;;3.30;1.80;;;23.60;54.30;;;;;;4998954;28;20045;-62
2023/10/10 15:30:10;;;;;;;3.67;1.80;;;23.60;54.30;;;;;;4999923;28;20034;-62
2023/10/10 15:32:47;;;;;;;3.47;1.60;;;23.60;54.30;;;;;;4998238;28;20026;-62
2023/10/10 15:35:18;;;;;;;2.92;1.52;;;23.60;54.30;;;;;;4997547;28;20474;-62
2023/10/10 15:37:44;;;;;;;2.95;1.63;;;23.60;54.30;;;;;;4998090;28;20466;-62
2023/10/10 15:40:20;;;;;;;2.78;1.50;;;23.60;54.30;;;;;;4999819;28;20042;-62
2023/10/10 15:42:50;;;;;;;3.20;1.65;;;23.60;54.30;;;;;;4997896;28;20124;-63
2023/10/10 15:45:22;;;;;;;2.55;1.50;;;23.60;54.30;;;;;;4998504;28;20501;-62
2023/10/10 15:47:49;;;;;;;2.60;1.48;;;23.60;54.80;;;;;;4996662;28;20061;-62
2023/10/10 15:50:21;;;;;;;2.20;1.30;;;23.60;54.30;;;;;;4997027;28;20509;-62
2023/10/10 15:52:48;;;;;;;2.38;1.50;;;23.60;54.30;;;;;;4997104;28;20054;-63